Time;durP1;ratioP1;P1;durP2;ratioP2;P2;SDS_P1;SDS_P2;PMS_P1;PMS_P2;Temp;Humidity;BMP_temperature;BMP_pressure;BME280_temperature;BME280_humidity;BME280_pressure;Samples;Min_cycle;Max_cycle;Signal;HPM_P1;HPM_P2
2022/07/03 00:00:43;;;;;;;6.95;5.60;;;13.50;1.00;;;;;;4975055;28;20494;-75
2022/07/03 00:03:09;;;;;;;6.55;5.25;;;13.50;1.00;;;;;;4975288;28;20023;-75
2022/07/03 00:05:35;;;;;;;9.65;5.40;;;13.50;12.90;;;;;;4975035;28;20022;-75
2022/07/03 00:08:03;;;;;;;7.30;5.28;;;13.50;23.40;;;;;;4974896;28;20082;-75
2022/07/03 00:10:29;;;;;;;9.18;5.50;;;13.40;23.50;;;;;;4974872;28;20037;-75
2022/07/03 00:12:54;;;;;;;5.85;5.32;;;13.40;28.50;;;;;;4969895;28;20019;-75
2022/07/03 00:15:20;;;;;;;5.55;5.05;;;13.30;15.40;;;;;;4955507;28;20019;-75
2022/07/03 00:17:45;;;;;;;5.70;4.47;;;13.20;1.00;;;;;;4955515;28;20027;-75
2022/07/03 00:20:11;;;;;;;5.32;4.82;;;13.20;1.00;;;;;;4955352;28;20039;-75
2022/07/03 00:22:40;;;;;;;8.90;5.00;;;13.20;1.00;;;;;;4955388;28;20082;-75
2022/07/03 00:25:08;;;;;;;5.78;5.03;;;13.20;11.60;;;;;;4955209;28;20139;-75
2022/07/03 00:27:34;;;;;;;5.68;4.57;;;13.10;1.00;;;;;;4964289;28;20102;-75
2022/07/03 00:30:02;;;;;;;6.43;5.00;;;13.10;1.00;;;;;;4974510;28;20086;-75
2022/07/03 00:32:28;;;;;;;6.78;5.75;;;13.10;23.80;;;;;;4990694;23;20057;-78
2022/07/03 00:34:55;;;;;;;7.65;6.22;;;13.00;1.00;;;;;;4993277;28;20026;-78
2022/07/03 00:37:22;;;;;;;8.98;7.43;;;13.00;16.00;;;;;;4993480;28;20076;-78
2022/07/03 00:39:52;;;;;;;9.27;8.07;;;13.10;13.00;;;;;;4979097;28;20066;-78
2022/07/03 00:42:18;;;;;;;10.65;8.00;;;13.00;56.00;;;;;;4974121;28;20114;-77
2022/07/03 00:44:45;;;;;;;7.80;7.00;;;13.00;62.30;;;;;;4977127;28;20038;-78
2022/07/03 00:47:12;;;;;;;8.68;7.57;;;12.90;13.30;;;;;;4984981;28;20019;-77
2022/07/03 00:49:39;;;;;;;8.55;6.95;;;12.80;22.60;;;;;;4977689;28;20053;-78
2022/07/03 00:52:05;;;;;;;9.02;6.55;;;12.70;63.80;;;;;;4994437;28;20073;-77
2022/07/03 00:54:35;;;;;;;8.80;7.63;;;12.80;55.70;;;;;;4988703;28;20471;-77
2022/07/03 00:57:02;;;;;;;8.40;7.45;;;12.70;69.00;;;;;;4974887;28;20493;-78
2022/07/03 00:59:28;;;;;;;9.32;8.30;;;12.70;69.90;;;;;;4973634;28;20035;-77
2022/07/03 01:02:03;;;;;;;9.82;8.10;;;12.80;91.30;;;;;;4978308;28;20041;-77
2022/07/03 01:04:52;;;;;;;10.32;8.20;;;12.70;48.60;;;;;;4994118;28;20014;-78
2022/07/03 01:07:42;;;;;;;11.98;8.52;;;12.60;61.40;;;;;;4983287;28;20019;-77
2022/07/03 01:10:36;;;;;;;9.70;8.73;;;12.60;64.40;;;;;;4992904;28;20084;-77
2022/07/03 01:13:22;;;;;;;10.65;8.13;;;12.70;49.00;;;;;;4973610;28;20038;-77
2022/07/03 01:15:57;;;;;;;9.15;8.25;;;12.70;49.50;;;;;;4974564;28;20367;-77
2022/07/03 01:18:37;;;;;;;8.88;7.95;;;12.80;25.30;;;;;;4974458;28;20479;-77
2022/07/03 01:21:07;;;;;;;10.40;8.38;;;12.70;45.00;;;;;;4989597;28;20045;-77
2022/07/03 01:24:06;;;;;;;11.07;8.60;;;12.60;8.30;;;;;;4984610;28;20019;-77
2022/07/03 01:26:37;;;;;;;11.32;9.52;;;12.60;1.00;;;;;;4981666;28;20030;-77
2022/07/03 01:29:07;;;;;;;11.88;10.20;;;12.60;9.20;;;;;;4990915;28;20077;-77
2022/07/03 01:31:35;;;;;;;12.95;9.57;;;12.80;82.30;;;;;;4974520;28;20038;-78
2022/07/03 01:34:03;;;;;;;11.07;9.52;;;12.80;68.80;;;;;;4958055;28;20050;-78
2022/07/03 01:36:31;;;;;;;10.90;9.43;;;12.70;1.00;;;;;;4974464;28;20030;-78
2022/07/03 01:38:59;;;;;;;11.82;9.80;;;12.60;31.40;;;;;;4964350;28;20031;-78
2022/07/03 01:41:29;;;;;;;12.38;10.07;;;12.60;59.70;;;;;;4969187;28;20061;-77
2022/07/03 01:44:02;;;;;;;13.32;10.30;;;12.60;40.40;;;;;;4973182;28;20030;-77
2022/07/03 01:46:30;;;;;;;11.35;9.18;;;12.70;3.90;;;;;;4974617;28;20034;-77
2022/07/03 01:48:58;;;;;;;10.55;9.52;;;12.50;1.70;;;;;;4974231;28;20450;-78
2022/07/03 01:51:25;;;;;;;9.93;9.02;;;12.40;17.90;;;;;;4972873;28;20019;-77
2022/07/03 01:53:52;;;;;;;10.20;9.20;;;12.40;1.00;;;;;;4973203;28;20070;-77
2022/07/03 01:56:20;;;;;;;11.80;9.93;;;12.40;1.00;;;;;;4974118;28;20026;-77
2022/07/03 01:58:46;;;;;;;11.00;9.55;;;12.40;18.60;;;;;;4973863;28;20015;-77
2022/07/03 02:01:51;;;;;;;10.88;9.27;;;12.50;50.20;;;;;;4974318;28;20054;-77
2022/07/03 02:04:23;;;;;;;12.25;8.63;;;12.90;22.70;;;;;;4954909;28;20364;-77
2022/07/03 02:07:16;;;;;;;9.95;8.95;;;13.00;1.00;;;;;;4953513;29;20384;-77
2022/07/03 02:09:59;;;;;;;9.40;8.10;;;13.10;1.00;;;;;;4968568;28;20069;-77
2022/07/03 02:12:34;;;;;;;9.55;7.55;;;13.10;1.00;;;;;;4970417;28;20019;-77
2022/07/03 02:15:05;;;;;;;11.20;8.98;;;13.20;1.00;;;;;;4965746;28;20053;-77
2022/07/03 02:17:37;;;;;;;9.65;8.27;;;13.20;1.40;;;;;;4976045;28;20031;-77
2022/07/03 02:20:07;;;;;;;12.38;9.60;;;13.30;34.80;;;;;;4977934;28;20043;-77
2022/07/03 02:22:39;;;;;;;11.75;9.32;;;13.10;1.00;;;;;;4957321;28;20041;-77
2022/07/03 02:25:08;;;;;;;10.43;9.20;;;13.10;1.00;;;;;;4968861;28;20133;-77
2022/07/03 02:27:47;;;;;;;14.77;10.10;;;13.30;30.20;;;;;;4976313;28;20042;-77
2022/07/03 02:30:14;;;;;;;10.63;8.82;;;13.50;72.20;;;;;;4961597;28;20040;-77
2022/07/03 02:32:51;;;;;;;10.25;8.98;;;13.60;59.00;;;;;;4957731;28;20138;-77
2022/07/03 02:35:31;;;;;;;9.18;7.75;;;13.70;61.00;;;;;;4958263;28;20102;-77
2022/07/03 02:38:32;;;;;;;7.35;6.65;;;13.80;27.80;;;;;;4968604;28;20031;-77
2022/07/03 02:41:23;;;;;;;9.73;6.95;;;13.90;39.70;;;;;;4965309;28;20039;-77
2022/07/03 02:44:07;;;;;;;8.93;6.10;;;14.00;40.20;;;;;;4976073;28;20394;-77
2022/07/03 02:47:02;;;;;;;15.60;7.28;;;14.00;24.10;;;;;;4977445;28;20062;-77
2022/07/03 02:49:50;;;;;;;8.02;7.00;;;14.10;8.90;;;;;;4958044;28;20027;-77
2022/07/03 02:52:34;;;;;;;9.88;7.03;;;14.10;5.50;;;;;;4974959;28;20359;-77
2022/07/03 02:55:31;;;;;;;6.90;6.20;;;14.00;16.10;;;;;;4966238;28;20579;-77
2022/07/03 02:58:12;;;;;;;6.57;5.93;;;13.80;33.20;;;;;;4957464;28;20034;-77
2022/07/03 03:00:42;;;;;;;7.93;7.13;;;13.50;1.20;;;;;;4972602;28;20206;-77
2022/07/03 03:03:08;;;;;;;6.60;6.00;;;13.50;13.60;;;;;;4976967;28;20074;-77
2022/07/03 03:05:48;;;;;;;8.77;6.65;;;13.60;44.40;;;;;;4976549;28;20065;-77
2022/07/03 03:08:33;;;;;;;8.18;6.25;;;13.40;52.70;;;;;;4973941;28;20028;-77
2022/07/03 03:11:06;;;;;;;6.90;6.20;;;13.40;41.00;;;;;;4992411;28;20034;-77
2022/07/03 03:13:32;;;;;;;9.00;6.65;;;13.40;20.10;;;;;;4996149;28;20488;-77
2022/07/03 03:16:09;;;;;;;8.90;6.65;;;13.50;57.60;;;;;;4996028;28;20102;-77
2022/07/03 03:18:37;;;;;;;9.13;7.30;;;13.50;1.00;;;;;;4995811;28;20073;-77
2022/07/03 03:21:05;;;;;;;7.35;6.65;;;13.70;25.10;;;;;;4979884;28;20071;-77
2022/07/03 03:23:54;;;;;;;14.50;8.20;;;13.70;22.50;;;;;;4976175;28;20157;-77
2022/07/03 03:26:28;;;;;;;6.80;6.10;;;13.70;31.50;;;;;;4976455;28;20023;-77
2022/07/03 03:28:54;;;;;;;7.20;6.13;;;13.60;17.50;;;;;;4960450;28;20027;-77
2022/07/03 03:31:20;;;;;;;9.00;6.97;;;13.60;74.40;;;;;;4956995;28;20051;-77
2022/07/03 03:33:49;;;;;;;7.40;6.30;;;13.70;90.20;;;;;;4956728;28;20055;-77
2022/07/03 03:36:17;;;;;;;8.40;6.90;;;13.90;87.80;;;;;;4955822;29;20020;-77
2022/07/03 03:38:44;;;;;;;8.00;7.20;;;13.80;60.40;;;;;;4970613;28;20111;-77
2022/07/03 03:41:10;;;;;;;7.70;7.00;;;13.70;84.30;;;;;;4956897;28;20078;-77
2022/07/03 03:43:36;;;;;;;9.45;6.93;;;13.90;63.40;;;;;;4971963;28;20497;-77
2022/07/03 03:46:02;;;;;;;7.95;6.63;;;13.80;71.30;;;;;;4976135;28;20034;-77
2022/07/03 03:48:28;;;;;;;8.73;6.55;;;14.10;65.70;;;;;;4975891;28;20031;-77
2022/07/03 03:50:58;;;;;;;9.05;7.05;;;14.20;81.70;;;;;;4976076;28;20415;-77
2022/07/03 03:53:25;;;;;;;7.13;6.28;;;14.40;60.50;;;;;;4976036;28;20019;-77
2022/07/03 03:56:02;;;;;;;7.43;5.93;;;14.50;1.00;;;;;;4976031;28;20042;-77
2022/07/03 03:58:33;;;;;;;7.90;5.57;;;14.50;37.80;;;;;;4975961;28;20097;-77
2022/07/03 04:01:01;;;;;;;6.55;5.75;;;14.30;37.50;;;;;;4975802;28;20037;-77
2022/07/03 04:03:27;;;;;;;6.32;5.47;;;14.40;26.50;;;;;;4975853;28;20035;-77
2022/07/03 04:05:54;;;;;;;6.40;5.72;;;14.30;30.50;;;;;;4975675;28;20114;-77
2022/07/03 04:08:21;;;;;;;6.57;5.88;;;14.30;35.10;;;;;;4969721;28;20027;-77
2022/07/03 04:10:47;;;;;;;7.45;5.75;;;14.90;37.60;;;;;;4956321;28;20035;-78
2022/07/03 04:13:13;;;;;;;6.93;6.10;;;14.90;11.00;;;;;;4956370;28;20034;-77
2022/07/03 04:15:39;;;;;;;6.60;5.55;;;14.90;13.60;;;;;;4956220;28;20027;-77
2022/07/03 04:18:05;;;;;;;7.97;5.50;;;14.70;23.50;;;;;;4956107;28;20046;-77
2022/07/03 04:20:30;;;;;;;5.60;5.00;;;14.60;4.50;;;;;;4956100;28;20038;-78
2022/07/03 04:22:57;;;;;;;5.13;4.60;;;14.70;29.90;;;;;;4959906;28;20653;-77
2022/07/03 04:25:23;;;;;;;5.60;5.10;;;14.90;1.50;;;;;;4972647;28;20030;-77
2022/07/03 04:27:49;;;;;;;5.88;4.80;;;14.80;11.50;;;;;;4975238;28;20018;-77
2022/07/03 04:30:14;;;;;;;4.72;4.22;;;14.70;10.30;;;;;;4975157;28;20038;-77
2022/07/03 04:32:40;;;;;;;4.70;3.90;;;14.80;13.90;;;;;;4974792;28;20115;-77
2022/07/03 04:35:07;;;;;;;4.97;4.05;;;14.90;15.60;;;;;;4975355;28;20030;-77
2022/07/03 04:37:32;;;;;;;4.43;4.03;;;15.90;1.00;;;;;;4975175;28;20026;-77
2022/07/03 04:39:58;;;;;;;4.65;3.75;;;18.90;1.00;;;;;;4975035;28;20103;-77
2022/07/03 04:42:23;;;;;;;3.28;3.00;;;21.20;99.90;;;;;;4973976;28;20348;-77
2022/07/03 04:44:49;;;;;;;3.60;3.30;;;22.50;99.90;;;;;;4974819;28;20379;-77
2022/07/03 04:47:15;;;;;;;3.45;2.75;;;23.70;99.90;;;;;;4966899;28;20034;-77
2022/07/03 04:49:44;;;;;;;4.00;2.80;;;25.00;99.90;;;;;;4973733;28;20487;-78
2022/07/03 04:52:10;;;;;;;2.97;2.30;;;25.80;99.90;;;;;;4971673;28;20027;-78
2022/07/03 04:54:36;;;;;;;3.08;2.10;;;27.10;99.90;;;;;;4955621;28;20027;-78
2022/07/03 04:57:02;;;;;;;3.83;2.00;;;27.70;99.90;;;;;;4975006;28;20101;-78
2022/07/03 04:59:28;;;;;;;2.78;1.85;;;26.50;99.90;;;;;;4974433;28;20352;-78
2022/07/03 05:01:53;;;;;;;2.55;1.60;;;24.50;99.90;;;;;;4973055;28;20062;-78
2022/07/03 05:04:19;;;;;;;2.08;1.90;;;22.40;99.90;;;;;;4973281;28;20027;-78
2022/07/03 05:06:45;;;;;;;1.83;1.63;;;21.40;99.90;;;;;;4956990;28;20020;-78
2022/07/03 05:09:10;;;;;;;3.70;2.00;;;21.00;99.90;;;;;;4960712;28;20028;-78
2022/07/03 05:11:36;;;;;;;3.08;1.90;;;21.10;99.90;;;;;;4955004;28;20027;-78
2022/07/03 05:14:04;;;;;;;3.25;1.60;;;24.30;99.90;;;;;;4965814;28;20023;-78
2022/07/03 05:16:31;;;;;;;1.58;1.40;;;22.80;99.90;;;;;;4974359;28;20023;-78
2022/07/03 05:18:57;;;;;;;1.95;1.42;;;22.10;99.90;;;;;;4972825;28;20019;-78
2022/07/03 05:21:22;;;;;;;2.63;1.40;;;21.90;99.90;;;;;;4974279;28;20454;-78
2022/07/03 05:23:48;;;;;;;2.08;1.30;;;22.30;99.90;;;;;;4974234;28;20078;-78
2022/07/03 05:26:14;;;;;;;1.88;1.55;;;23.00;99.90;;;;;;4974319;28;20086;-78
2022/07/03 05:28:40;;;;;;;2.33;1.65;;;25.10;99.90;;;;;;4974246;28;20113;-78
2022/07/03 05:31:06;;;;;;;2.47;1.15;;;24.20;99.90;;;;;;4974116;28;20120;-78
2022/07/03 05:33:32;;;;;;;1.52;1.15;;;25.80;99.90;;;;;;4973825;28;20089;-78
2022/07/03 05:35:58;;;;;;;1.88;1.33;;;27.70;99.90;;;;;;4974324;28;20042;-79
2022/07/03 05:41:08;;;;;;;2.30;1.20;;;32.50;99.90;;;;;;4974165;28;20446;-78
2022/07/03 05:43:34;;;;;;;3.22;1.08;;;32.20;99.90;;;;;;4965944;28;20460;-78
2022/07/03 05:46:00;;;;;;;1.17;1.00;;;33.80;99.90;;;;;;4954932;28;20098;-78
2022/07/03 05:48:26;;;;;;;2.17;1.10;;;33.80;99.90;;;;;;4954968;28;20087;-79
2022/07/03 05:50:52;;;;;;;1.85;1.10;;;33.20;99.90;;;;;;4954586;28;20027;-79
2022/07/03 05:53:17;;;;;;;3.13;1.10;;;35.90;99.90;;;;;;4957028;28;20059;-79
2022/07/03 05:55:43;;;;;;;2.47;0.93;;;36.40;99.90;;;;;;4957169;29;20031;-78
2022/07/03 05:58:08;;;;;;;2.63;0.90;;;36.90;99.90;;;;;;4958617;28;20102;-78
2022/07/03 06:00:34;;;;;;;2.08;0.88;;;38.10;99.90;;;;;;4958287;29;20031;-78
2022/07/03 06:03:01;;;;;;;2.28;0.90;;;38.90;99.90;;;;;;4958337;28;20034;-78
2022/07/03 06:05:27;;;;;;;2.28;0.70;;;38.80;99.90;;;;;;4967244;28;20030;-78
2022/07/03 06:07:53;;;;;;;3.42;0.85;;;39.10;99.90;;;;;;4977551;28;20027;-79
2022/07/03 06:10:18;;;;;;;1.55;0.70;;;40.10;99.90;;;;;;4959529;28;20375;-78
2022/07/03 06:12:44;;;;;;;5.50;0.90;;;39.90;99.90;;;;;;4970765;28;20015;-79
2022/07/03 06:15:10;;;;;;;4.72;0.70;;;39.40;99.90;;;;;;4975049;28;20023;-78
2022/07/03 06:17:36;;;;;;;3.58;0.90;;;40.70;99.90;;;;;;4976996;28;20494;-78
2022/07/03 06:20:03;;;;;;;1.65;0.65;;;39.20;99.90;;;;;;4976293;28;20031;-78
2022/07/03 06:22:28;;;;;;;2.08;0.80;;;40.80;99.90;;;;;;4977630;28;20030;-78
2022/07/03 06:24:54;;;;;;;2.50;0.70;;;40.00;99.90;;;;;;4977636;28;20081;-79
2022/07/03 06:27:19;;;;;;;1.55;0.70;;;39.00;99.90;;;;;;4958258;28;20105;-79
2022/07/03 06:29:45;;;;;;;4.20;1.10;;;41.30;99.90;;;;;;4957835;28;20475;-79
2022/07/03 06:32:11;;;;;;;2.72;0.85;;;41.60;99.90;;;;;;4960765;28;20977;-79
2022/07/03 06:34:36;;;;;;;1.80;0.65;;;40.70;99.90;;;;;;4977505;28;20058;-79
2022/07/03 06:37:02;;;;;;;4.22;0.90;;;41.30;99.90;;;;;;4977690;28;20030;-79
2022/07/03 06:39:27;;;;;;;3.10;0.70;;;42.00;99.90;;;;;;4977582;28;20106;-80
2022/07/03 06:41:53;;;;;;;3.33;0.90;;;42.50;99.90;;;;;;4977713;28;20035;-79
2022/07/03 06:44:19;;;;;;;2.20;0.80;;;43.60;99.90;;;;;;4977207;28;20030;-79
2022/07/03 06:46:44;;;;;;;3.35;0.82;;;43.60;99.90;;;;;;4976415;28;20027;-79
2022/07/03 06:49:10;;;;;;;2.55;0.80;;;43.50;99.90;;;;;;4976423;28;20467;-79
2022/07/03 06:51:35;;;;;;;1.17;0.60;;;44.90;99.90;;;;;;4976533;28;20077;-79
2022/07/03 06:54:01;;;;;;;2.78;0.88;;;45.30;99.90;;;;;;4976615;28;20114;-79
2022/07/03 06:56:27;;;;;;;4.88;1.00;;;45.30;99.90;;;;;;4963477;28;20035;-79
2022/07/03 06:58:52;;;;;;;6.32;1.00;;;44.40;99.90;;;;;;4976704;28;20035;-79
2022/07/03 07:01:18;;;;;;;2.03;0.73;;;44.20;99.90;;;;;;4957518;28;20106;-79
2022/07/03 07:03:43;;;;;;;2.05;0.98;;;45.90;99.90;;;;;;4956179;28;20471;-79
2022/07/03 07:06:09;;;;;;;2.90;0.90;;;46.50;99.90;;;;;;4957286;28;20106;-79
2022/07/03 07:08:35;;;;;;;2.55;0.90;;;45.50;99.90;;;;;;4957607;28;20030;-80
2022/07/03 07:11:01;;;;;;;2.33;0.70;;;44.70;99.90;;;;;;4971623;28;20430;-79
2022/07/03 07:13:27;;;;;;;2.53;0.57;;;46.80;99.90;;;;;;4977094;28;20069;-79
2022/07/03 07:15:52;;;;;;;2.47;0.90;;;46.80;99.90;;;;;;4976669;28;20055;-79
2022/07/03 07:18:18;;;;;;;2.45;0.85;;;46.90;99.90;;;;;;4976515;28;20415;-79
2022/07/03 07:20:44;;;;;;;2.53;0.80;;;46.50;99.90;;;;;;4976341;28;20110;-79
2022/07/03 07:23:09;;;;;;;2.28;0.73;;;46.20;99.90;;;;;;4976530;28;20048;-80
2022/07/03 07:25:36;;;;;;;3.67;0.80;;;46.80;99.90;;;;;;4974632;28;20019;-79
2022/07/03 07:28:01;;;;;;;2.72;0.90;;;46.40;99.90;;;;;;4956908;28;20066;-80
2022/07/03 07:30:27;;;;;;;2.58;1.00;;;47.10;99.90;;;;;;4956928;28;20071;-80
2022/07/03 07:32:53;;;;;;;3.60;0.95;;;47.90;99.90;;;;;;4956687;28;20067;-80
2022/07/03 07:35:18;;;;;;;2.13;0.70;;;49.00;99.90;;;;;;4957021;28;20039;-80
2022/07/03 07:37:44;;;;;;;4.22;1.05;;;49.20;99.90;;;;;;4955493;29;20054;-80
2022/07/03 07:40:10;;;;;;;2.22;0.80;;;47.90;99.90;;;;;;4957221;28;20027;-80
2022/07/03 07:42:35;;;;;;;5.57;1.23;;;46.80;99.90;;;;;;4956758;29;20027;-80
2022/07/03 07:45:01;;;;;;;2.85;0.85;;;47.40;99.90;;;;;;4956691;28;20391;-79
2022/07/03 07:47:27;;;;;;;3.58;1.10;;;47.40;99.90;;;;;;4965136;28;20033;-79
2022/07/03 07:49:52;;;;;;;3.83;1.20;;;48.20;99.90;;;;;;4975889;28;20030;-80
2022/07/03 07:52:18;;;;;;;5.00;1.08;;;46.70;99.90;;;;;;4975882;28;20039;-80
2022/07/03 07:54:44;;;;;;;3.97;1.35;;;44.50;99.90;;;;;;4975803;28;20085;-79
2022/07/03 07:57:09;;;;;;;3.30;1.00;;;40.40;99.90;;;;;;4975630;28;20030;-79
2022/07/03 07:59:35;;;;;;;2.20;1.00;;;37.40;99.90;;;;;;4975528;28;20022;-80
2022/07/03 08:07:29;;;;;;;4.38;1.58;;;45.70;99.90;;;;;;4975871;28;20045;-79
2022/07/03 08:09:54;;;;;;;4.72;1.13;;;47.60;99.90;;;;;;4978341;28;20370;-79
2022/07/03 08:12:20;;;;;;;4.35;1.25;;;48.60;99.90;;;;;;4975345;28;20058;-79
2022/07/03 08:14:45;;;;;;;3.95;1.13;;;46.00;99.90;;;;;;4958342;28;20095;-79
2022/07/03 08:17:11;;;;;;;4.63;1.20;;;43.10;99.90;;;;;;4966256;28;20102;-79
2022/07/03 08:19:37;;;;;;;3.38;1.40;;;38.80;99.90;;;;;;4974482;28;20110;-79
2022/07/03 08:22:03;;;;;;;4.35;1.60;;;36.10;99.90;;;;;;4975472;28;20479;-79
2022/07/03 08:24:28;;;;;;;5.80;1.70;;;38.80;99.90;;;;;;4975155;28;20525;-80
2022/07/03 08:26:54;;;;;;;4.95;1.48;;;41.30;99.90;;;;;;4965840;28;20023;-79
2022/07/03 08:29:19;;;;;;;4.63;1.20;;;39.70;99.90;;;;;;4972982;28;20027;-79
2022/07/03 08:31:45;;;;;;;4.32;1.70;;;39.70;99.90;;;;;;4975140;28;20026;-80
2022/07/03 08:34:13;;;;;;;5.00;1.27;;;40.00;99.90;;;;;;4958574;28;20051;-80
2022/07/03 08:36:41;;;;;;;4.57;1.40;;;39.00;99.90;;;;;;4966953;28;20047;-79
2022/07/03 08:39:07;;;;;;;2.30;1.40;;;37.10;99.90;;;;;;4975857;28;20015;-80
2022/07/03 08:41:41;;;;;;;5.60;1.52;;;41.80;99.90;;;;;;4967130;28;20468;-79
2022/07/03 08:44:09;;;;;;;5.60;1.42;;;37.70;99.90;;;;;;4958715;28;20082;-79
2022/07/03 08:46:36;;;;;;;3.45;1.38;;;34.70;99.90;;;;;;4957128;28;20027;-79
2022/07/03 08:49:02;;;;;;;5.75;1.50;;;33.40;99.90;;;;;;4955648;29;20039;-79
2022/07/03 08:51:28;;;;;;;4.10;1.42;;;33.20;99.90;;;;;;4955563;28;20028;-79
2022/07/03 08:53:54;;;;;;;4.45;1.38;;;32.80;99.90;;;;;;4971182;28;20021;-78
2022/07/03 08:56:22;;;;;;;3.63;1.60;;;32.20;99.90;;;;;;4969021;28;20434;-78
2022/07/03 08:58:47;;;;;;;5.07;1.40;;;32.00;99.90;;;;;;4955452;28;20473;-78
2022/07/03 09:01:18;;;;;;;3.60;1.50;;;39.40;99.90;;;;;;4955481;28;20042;-78
2022/07/03 09:03:44;;;;;;;3.80;1.33;;;44.00;99.90;;;;;;4965947;28;20035;-78
2022/07/03 09:06:12;;;;;;;4.68;1.30;;;40.20;99.90;;;;;;4974646;28;20390;-78
2022/07/03 09:08:39;;;;;;;4.05;1.60;;;36.10;99.90;;;;;;4974718;28;20430;-78
2022/07/03 09:11:05;;;;;;;4.22;1.42;;;33.10;99.90;;;;;;4959344;28;20459;-78
2022/07/03 09:13:30;;;;;;;5.68;1.70;;;31.70;99.90;;;;;;4955470;29;20106;-78
2022/07/03 09:15:56;;;;;;;4.43;1.50;;;30.00;99.90;;;;;;4955226;29;20475;-78
2022/07/03 09:18:43;;;;;;;5.13;1.48;;;30.60;99.90;;;;;;4967129;28;20057;-78
2022/07/03 09:21:09;;;;;;;4.90;1.42;;;32.70;99.90;;;;;;4963803;28;20102;-78
2022/07/03 09:23:40;;;;;;;5.22;1.38;;;30.20;99.90;;;;;;4974746;28;20101;-78
2022/07/03 09:26:06;;;;;;;4.22;1.25;;;29.30;99.90;;;;;;4973759;28;20522;-78
2022/07/03 09:28:52;;;;;;;5.38;1.33;;;29.60;99.90;;;;;;4974502;28;20026;-78
2022/07/03 09:31:20;;;;;;;6.40;1.73;;;30.30;99.90;;;;;;4974109;28;20038;-78
2022/07/03 09:34:07;;;;;;;5.45;1.38;;;34.10;99.90;;;;;;4973888;28;20117;-78
2022/07/03 09:36:47;;;;;;;4.97;1.40;;;38.60;99.90;;;;;;4974743;28;20106;-78
2022/07/03 09:39:30;;;;;;;2.92;1.40;;;40.90;99.90;;;;;;4974456;28;20031;-78
2022/07/03 09:42:02;;;;;;;4.63;1.20;;;37.30;99.90;;;;;;4959312;28;20102;-78
2022/07/03 09:44:33;;;;;;;4.53;1.40;;;35.00;99.90;;;;;;4974656;28;20472;-78
2022/07/03 09:47:16;;;;;;;3.33;1.42;;;32.60;99.90;;;;;;4974271;28;20106;-78
2022/07/03 09:49:59;;;;;;;6.72;1.50;;;30.90;99.90;;;;;;4974024;28;20038;-78
2022/07/03 09:52:26;;;;;;;4.18;1.20;;;29.70;99.90;;;;;;4974169;28;20023;-78
2022/07/03 09:54:51;;;;;;;3.25;1.42;;;32.20;99.90;;;;;;4974193;28;20019;-78
2022/07/03 09:57:19;;;;;;;3.45;1.20;;;37.20;99.90;;;;;;4974235;28;20019;-78
2022/07/03 09:59:44;;;;;;;5.82;1.20;;;37.70;99.90;;;;;;4974070;28;20033;-78
2022/07/03 10:02:10;;;;;;;3.72;1.08;;;35.00;99.90;;;;;;4974133;28;20023;-78
2022/07/03 10:04:35;;;;;;;3.72;1.33;;;33.90;99.90;;;;;;4973940;28;20030;-78
2022/07/03 10:07:01;;;;;;;4.22;1.20;;;33.50;99.90;;;;;;4974078;28;20034;-78
2022/07/03 10:09:32;;;;;;;2.15;0.98;;;32.70;99.90;;;;;;4973884;28;20031;-78
2022/07/03 10:12:00;;;;;;;3.25;1.00;;;32.90;99.90;;;;;;4975139;28;20042;-78
2022/07/03 10:14:31;;;;;;;4.07;1.25;;;32.70;99.90;;;;;;4975994;28;20069;-78
2022/07/03 10:16:58;;;;;;;3.83;1.08;;;32.80;99.90;;;;;;4974194;28;20035;-78
2022/07/03 10:19:27;;;;;;;3.03;1.25;;;32.70;99.90;;;;;;4972689;28;20037;-78
2022/07/03 10:21:59;;;;;;;2.55;1.15;;;32.70;99.90;;;;;;4974043;28;20027;-78
2022/07/03 10:24:27;;;;;;;3.03;1.10;;;32.30;99.90;;;;;;4968560;28;20082;-78
2022/07/03 10:26:54;;;;;;;1.77;1.10;;;33.00;99.90;;;;;;4966054;28;20027;-78
2022/07/03 10:29:25;;;;;;;2.25;1.00;;;32.40;99.90;;;;;;4973863;28;20042;-78
2022/07/03 10:31:51;;;;;;;4.50;1.00;;;31.40;99.90;;;;;;4973924;28;20027;-78
2022/07/03 10:34:22;;;;;;;2.03;1.13;;;32.40;99.90;;;;;;4973642;28;20055;-78
2022/07/03 10:36:54;;;;;;;2.58;1.15;;;31.80;99.90;;;;;;4974092;28;20475;-78
2022/07/03 10:39:41;;;;;;;2.15;1.05;;;31.60;99.90;;;;;;4977111;28;20058;-78
2022/07/03 10:45:07;;;;;;;8.77;4.20;;;37.30;99.90;;;;;;4977417;28;20466;-78
2022/07/03 10:47:59;;;;;;;10.85;4.25;;;39.70;99.90;;;;;;4977380;28;20041;-78
2022/07/03 10:50:25;;;;;;;3.38;1.85;;;40.60;99.90;;;;;;4975830;28;20482;-78
2022/07/03 10:52:51;;;;;;;5.45;2.63;;;38.30;99.90;;;;;;4977257;28;20103;-78
2022/07/03 10:55:18;;;;;;;1.67;1.17;;;37.60;99.90;;;;;;4977074;28;20074;-78
2022/07/03 10:58:07;;;;;;;2.33;1.10;;;38.10;99.90;;;;;;4959401;28;20027;-78
2022/07/03 11:00:56;;;;;;;2.45;0.90;;;36.20;99.90;;;;;;4957955;29;20027;-78
2022/07/03 11:03:54;;;;;;;3.03;1.00;;;36.10;99.90;;;;;;4970680;28;20468;-78
2022/07/03 11:06:20;;;;;;;2.92;0.82;;;35.80;99.90;;;;;;4957725;29;20110;-78
2022/07/03 11:09:03;;;;;;;2.83;0.98;;;35.30;99.90;;;;;;4957707;28;20077;-78
2022/07/03 11:11:55;;;;;;;2.95;0.90;;;33.60;99.90;;;;;;4957349;28;20031;-78
2022/07/03 11:14:28;;;;;;;2.88;0.80;;;33.10;99.90;;;;;;4970944;28;20038;-78
2022/07/03 11:17:21;;;;;;;3.25;1.02;;;35.20;99.90;;;;;;4976732;28;20031;-78
2022/07/03 11:23:04;;;;;;;2.60;1.10;;;36.20;99.90;;;;;;4976681;28;20102;-78
2022/07/03 11:25:44;;;;;;;6.03;1.00;;;34.10;99.90;;;;;;4976589;28;20378;-78
2022/07/03 11:28:32;;;;;;;3.25;1.17;;;32.70;99.90;;;;;;4976628;28;20034;-78
2022/07/03 11:33:56;;;;;;;1.27;0.70;;;30.90;99.90;;;;;;4976299;28;20055;-78
2022/07/03 11:36:21;;;;;;;1.38;0.70;;;31.00;99.90;;;;;;4976583;28;20050;-78
2022/07/03 11:39:07;;;;;;;2.22;0.75;;;30.70;99.90;;;;;;4976599;28;20091;-78
2022/07/03 11:41:36;;;;;;;2.50;0.90;;;30.20;99.90;;;;;;4976208;28;20069;-78
2022/07/03 11:44:07;;;;;;;2.53;1.23;;;29.40;99.90;;;;;;4976364;28;20019;-78
2022/07/03 11:46:34;;;;;;;2.50;1.17;;;29.90;99.90;;;;;;4974976;28;20382;-77
2022/07/03 11:49:11;;;;;;;1.85;1.00;;;30.10;99.90;;;;;;4956182;28;20016;-78
2022/07/03 11:51:38;;;;;;;3.40;1.08;;;29.70;99.90;;;;;;4957007;28;20090;-78
2022/07/03 11:54:05;;;;;;;2.17;1.10;;;29.50;99.90;;;;;;4956963;28;20247;-78
2022/07/03 11:56:32;;;;;;;1.58;0.85;;;29.00;99.90;;;;;;4972212;28;20038;-78
2022/07/03 11:58:59;;;;;;;2.33;1.08;;;29.10;99.90;;;;;;4976067;28;20029;-78
2022/07/03 12:01:30;;;;;;;2.88;1.20;;;28.10;99.90;;;;;;4974808;28;20058;-78
2022/07/03 12:04:07;;;;;;;1.10;0.98;;;27.50;99.90;;;;;;4975766;28;20027;-78
2022/07/03 12:06:35;;;;;;;1.35;1.00;;;27.60;99.90;;;;;;4975647;28;20077;-78
2022/07/03 12:09:00;;;;;;;2.55;1.13;;;28.20;99.90;;;;;;4975738;28;20031;-78
2022/07/03 12:11:26;;;;;;;1.92;1.00;;;28.00;99.90;;;;;;4956671;28;20090;-77
2022/07/03 12:13:52;;;;;;;2.55;1.10;;;27.70;99.90;;;;;;4956531;28;20055;-78
2022/07/03 12:16:18;;;;;;;0.90;0.80;;;27.90;99.90;;;;;;4956772;28;20027;-78
2022/07/03 12:19:07;;;;;;;1.70;0.75;;;28.30;99.90;;;;;;4956578;28;20078;-78
2022/07/03 12:21:38;;;;;;;1.38;0.93;;;28.30;99.90;;;;;;4955979;29;20054;-77
2022/07/03 12:24:11;;;;;;;1.27;0.85;;;29.40;99.90;;;;;;4968401;28;20031;-78
2022/07/03 12:26:37;;;;;;;1.55;0.70;;;29.30;99.90;;;;;;4968884;28;20450;-78
2022/07/03 12:29:06;;;;;;;2.55;1.02;;;29.40;99.90;;;;;;4983000;28;20506;-78
2022/07/03 12:31:32;;;;;;;1.92;0.75;;;29.20;99.90;;;;;;4965395;28;20090;-78
2022/07/03 12:33:59;;;;;;;0.60;0.60;;;29.40;99.90;;;;;;4975343;28;20537;-78
2022/07/03 12:36:25;;;;;;;2.30;0.65;;;29.00;99.90;;;;;;4973007;28;20018;-78
2022/07/03 12:38:55;;;;;;;1.05;0.75;;;28.70;99.90;;;;;;4972783;28;20482;-78
2022/07/03 12:41:22;;;;;;;2.28;0.75;;;28.10;99.90;;;;;;4975082;28;20026;-78
2022/07/03 12:43:50;;;;;;;2.03;0.60;;;29.20;99.90;;;;;;4972239;28;20022;-78
2022/07/03 12:46:32;;;;;;;1.80;0.77;;;29.20;99.90;;;;;;4970458;28;20074;-78
2022/07/03 12:48:59;;;;;;;1.77;0.73;;;28.50;99.90;;;;;;4985276;28;20042;-78
2022/07/03 12:51:49;;;;;;;0.98;0.50;;;28.40;99.90;;;;;;4975029;28;20113;-78
2022/07/03 12:54:16;;;;;;;1.88;0.80;;;28.70;99.90;;;;;;4969976;28;20710;-78
2022/07/03 12:56:42;;;;;;;1.23;0.70;;;27.90;99.90;;;;;;4974699;28;20023;-78
2022/07/03 12:59:25;;;;;;;1.23;0.65;;;28.00;99.90;;;;;;4973488;28;20033;-78
2022/07/03 13:02:05;;;;;;;1.00;0.75;;;27.50;99.90;;;;;;4969462;28;20026;-78
2022/07/03 13:04:35;;;;;;;1.60;0.70;;;27.20;99.90;;;;;;4968331;28;20031;-78
2022/07/03 13:07:06;;;;;;;0.88;0.63;;;26.90;99.90;;;;;;4955361;28;20047;-78
2022/07/03 13:09:36;;;;;;;0.85;0.60;;;26.40;99.90;;;;;;4969875;28;20081;-78
2022/07/03 13:12:03;;;;;;;1.60;0.73;;;26.00;99.90;;;;;;4965972;28;20019;-78
2022/07/03 13:14:29;;;;;;;1.77;0.82;;;25.90;99.90;;;;;;4958496;28;20509;-78
2022/07/03 13:16:56;;;;;;;1.38;0.80;;;25.70;99.90;;;;;;4969086;28;20031;-78